Weather observations for the past three days for
Wilmington Airport
Imperial (Metric)
Date Time (edt) Wind (mph) Vis. (mi.) Weather Sky Cond. Temperature (ºF) Relative Humidity Wind Chill (°F) Heat Index (°F) Pressure Precipitation (in)
Air Dwpt 6 hour altimeter (in) sea level (mb) 1 hr 3 hr 6 hr
Max. Min.
04 18:51 SW 13 10.00 Fair CLR 73 24.1 16% 29.83 1010.1
04 17:51 SW 7 G 20 10.00 Fair CLR 73.9 37 26% 29.83 1010.1
04 16:51 SW 13 G 25 10.00 Fair CLR 73.9 30 20% 29.84 1010.3
04 15:51 SW 16 G 26 10.00 Fair CLR 73.4 0 0% 29.86 1010.9
04 14:51 SW 14 G 21 10.00 Fair CLR 73.4 0 0% 29.87 1011.5
04 13:51 SW 10 G 21 10.00 Fair CLR 72 33.1 72 53.1 24% 29.9 1012.5
04 12:51 W 13 G 23 10.00 Fair CLR 71.1 30.9 23% 29.92 1013.2
04 11:51 W 13 G 21 10.00 Fair CLR 68 33.1 27% 29.94 1014.0
04 10:51 SW 13 10.00 Fair CLR 66 37 34% 29.95 1014.3
04 09:51 SW 10 10.00 Fair CLR 63 37.9 40% 29.96 1014.5
04 08:51 SW 10 G 21 10.00 Fair CLR 59 39 48% 29.97 1014.8
04 07:51 SW 12 10.00 A Few Clouds FEW095 53.1 43 53.1 46.9 69% 29.98 1015.2
04 06:51 SW 9 10.00 Mostly Cloudy BKN100 52 42.1 69% 29.99 1015.4
04 05:51 SW 9 10.00 Fair CLR 48.9 39 69% 45 29.99 1015.4
04 04:51 SW 9 10.00 Fair CLR 46.9 37 69% 43 29.99 1015.5
04 03:51 SW 7 10.00 Fair CLR 48.9 36 61% 46 29.99 1015.5
04 02:51 SW 8 10.00 Fair CLR 48.9 35.1 59% 46 29.98 1015.3
04 01:51 SW 7 10.00 Fair CLR 48 33.1 57.9 48 56% 45 29.98 1015.2
04 00:51 SW 9 10.00 Fair CLR 50 30.9 48% 47 29.99 1015.5
03 23:51 SW 7 10.00 Fair CLR 48.9 30.9 50% 46 29.97 1015.0
03 22:51 SW 7 10.00 Fair CLR 51.1 28.9 43% 29.97 1014.7
03 21:51 SW 8 10.00 Fair CLR 53.1 27 37% 29.97 1014.7
03 20:51 SW 6 10.00 Fair CLR 55 25 31% 29.95 1014.1
03 19:51 W 7 10.00 Fair CLR 57.9 25 63 57.9 28% 29.93 1013.5
03 18:51 W 10 G 21 10.00 Fair CLR 61 24.1 24% 29.92 1013.2
03 17:51 NW 14 G 30 10.00 Fair CLR 62.1 23 22% 29.93 1013.4
03 16:51 W 18 G 30 10.00 Partly Cloudy SCT080 62.1 23 22% 29.92 1013.1
03 15:51 NW 24 G 32 10.00 A Few Clouds and Breezy FEW080 62.1 24.1 23% 29.94 1013.8
03 14:51 W 20 G 28 10.00 A Few Clouds FEW075 60.1 24.1 25% 29.95 1014.3
03 13:51 NW 16 G 26 10.00 Partly Cloudy SCT075 57.9 24.1 59 46.9 27% 29.97 1014.7
03 12:51 NW 18 G 24 10.00 Partly Cloudy SCT070 57.9 25 28% 29.97 1014.9
03 11:51 NW 12 G 26 10.00 A Few Clouds FEW060 55 27 34% 29.98 1015.2
03 10:51 NW 13 G 24 10.00 Partly Cloudy SCT055 SCT070 54 28 37% 29.99 1015.4
03 09:51 NW 18 G 28 10.00 A Few Clouds FEW044 53.1 30 41% 29.98 1015.2
03 08:51 NW 20 G 26 10.00 Fair CLR 50 28.9 44% 44 29.97 1015.0
03 07:51 NW 12 G 21 10.00 Overcast SCT070 OVC085 48.9 30.9 48.9 44.1 50% 45 29.96 1014.5
03 06:51 NW 13 10.00 Overcast BKN060 OVC080 46 32 58% 41 29.94 1013.8
03 05:51 NW 12 10.00 Overcast FEW060 OVC080 46 33.1 61% 41 29.91 1013.0
03 04:51 NW 13 10.00 Overcast BKN055 OVC070 45 33.1 63% 39 29.9 1012.6
03 03:51 W 12 10.00 Fair CLR 45 33.1 63% 40 29.89 1012.1
03 02:51 N 12 10.00 Fair CLR 46 33.1 61% 41 29.86 1011.1
03 01:51 NW 12 10.00 Fair CLR 46.9 32 55 46.9 56% 42 29.89 1012.1
03 00:51 NW 12 10.00 A Few Clouds FEW095 48.9 32 52% 45 29.9 1012.4
02 23:51 NW 14 10.00 Overcast OVC090 51.1 32 48% 29.91 1012.8
02 22:51 NW 8 10.00 Partly Cloudy SCT095 48.9 30.9 50% 46 29.9 1012.6
02 21:51 NW 8 10.00 A Few Clouds FEW095 51.1 30 45% 29.91 1012.8
02 20:51 NW 7 10.00 Fair CLR 52 30.9 45% 29.89 1012.2
02 19:51 NW 10 10.00 Fair CLR 55 28.9 64 55 37% 29.88 1011.8
02 18:51 NW 13 10.00 Fair CLR 59 27 29% 29.87 1011.4
02 17:51 NW 10 10.00 Partly Cloudy SCT075 59 28 31% 29.87 1011.4
02 16:51 NW 13 10.00 Mostly Cloudy BKN070 60.1 30 32% 29.86 1010.9
02 15:51 NW 14 G 20 10.00 Fair CLR 63 30.9 30% 29.86 1011.2
02 14:51 NW 10 G 17 10.00 A Few Clouds FEW065 62.1 30.9 31% 29.89 1012.2
02 13:51 NW 10 10.00 Fair CLR 61 32 62.1 51.1 34% 29.91 1012.7
02 12:51 N 14 G 22 10.00 Fair CLR 62.1 30.9 31% 29.92 1013.0
02 11:51 NW 9 10.00 Fair CLR 57.9 35.1 42% 29.94 1013.8
02 10:51 NW 12 G 21 10.00 A Few Clouds FEW036 55 39 55% 29.93 1013.5
02 09:51 NW 10 10.00 Mostly Cloudy SCT025 BKN080 53.1 39.9 61% 29.93 1013.6
02 08:51 NW 13 10.00 Partly Cloudy SCT090 53.1 41 64% 29.94 1013.7
02 07:51 NW 10 10.00 Fair CLR 51.1 39.9 54 50 66% 29.93 1013.4
02 06:51 NW 15 G 22 10.00 Fair CLR 50 41 71% 45 29.92 1013.2
02 05:51 NW 8 10.00 A Few Clouds FEW075 51.1 43 74% 29.89 1012.2
02 04:51 W 5 10.00 Overcast OVC070 52 44.1 75% 29.9 1012.5
02 03:51 Calm 10.00 Mostly Cloudy SCT047 BKN070 53.1 42.1 66% 29.89 1012.1
02 02:51 SW 3 10.00 Overcast OVC035 53.1 41 64% 29.9 1012.3
02 01:51 S 8 10.00 Mostly Cloudy BKN031 54 39.9 57 53.1 59% 29.9 1012.3
02 00:51 S 6 10.00 Overcast FEW055 OVC080 55 39.9 57% 29.9 1012.4
01 23:51 S 6 10.00 Mostly Cloudy FEW070 BKN090 BKN100 55 41 59% 29.9 1012.3
01 22:51 SE 6 10.00 A Few Clouds FEW110 53.1 45 74% 29.89 1012.0
01 21:51 SE 8 10.00 Partly Cloudy SCT110 54 45 72% 29.9 1012.5
01 20:51 SE 9 10.00 Fair CLR 55 45 69% 29.89 1012.2
01 19:51 S 13 10.00 Fair CLR 57 43 66 55.9 60% 29.87 1011.6
Date Time (edt) Wind (mph) Vis. (mi.) Weather Sky Cond. Air Dwpt Max. Min. Relative Humidity Wind Chill (°F) Heat Index (°F) altimeter (in) sea level (mb) 1 hr 3 hr 6 hr
6 hour
Temperature (ºF) Pressure Precipitation (in)